Time;durP1;ratioP1;P1;durP2;ratioP2;P2;SDS_P1;SDS_P2;PMS_P1;PMS_P2;Temp;Humidity;BMP_temperature;BMP_pressure;BME280_temperature;BME280_humidity;BME280_pressure;Samples;Min_cycle;Max_cycle;Signal;HPM_P1;HPM_P2
2022/06/16 00:01:27;;;;;;;15.05;9.85;;;;;;;;;;5012133;28;20087;-61
2022/06/16 00:03:53;;;;;;;17.17;10.18;;;;;;;;;;5032002;28;20017;-61
2022/06/16 00:06:19;;;;;;;16.88;9.88;;;;;;;;;;5013927;28;20048;-59
2022/06/16 00:08:45;;;;;;;16.58;10.30;;;;;;;;;;5030940;28;20113;-59
2022/06/16 00:11:16;;;;;;;18.58;9.80;;;;;;;;;;5013873;28;20072;-62
2022/06/16 00:13:43;;;;;;;16.77;9.60;;;;;;;;;;5031427;28;20029;-61
2022/06/16 00:16:10;;;;;;;16.13;10.18;;;;;;;;;;5031558;28;20037;-58
2022/06/16 00:18:36;;;;;;;16.67;9.55;;;;;;;;;;5030605;28;20547;-62
2022/06/16 00:21:02;;;;;;;17.25;9.93;;;;;;;;;;5014007;28;20029;-60
2022/06/16 00:23:29;;;;;;;16.80;9.55;;;;;;;;;;5032135;28;20049;-61
2022/06/16 00:25:55;;;;;;;16.42;9.82;;;;;;;;;;5032018;28;20084;-59
2022/06/16 00:28:21;;;;;;;16.10;9.88;;;;;;;;;;5031170;28;20067;-61
2022/06/16 00:30:47;;;;;;;16.48;9.65;;;;;;;;;;5031784;28;20068;-61
2022/06/16 00:33:13;;;;;;;17.15;9.75;;;;;;;;;;4999538;22;20169;-61
2022/06/16 00:35:39;;;;;;;21.10;10.38;;;;;;;;;;4991210;28;20033;-61
2022/06/16 00:38:05;;;;;;;16.40;10.20;;;;;;;;;;4990572;28;20483;-61
2022/06/16 00:40:31;;;;;;;16.02;10.20;;;;;;;;;;4991423;28;20038;-62
2022/06/16 00:42:57;;;;;;;15.50;9.80;;;;;;;;;;4991262;28;20023;-62
2022/06/16 00:45:42;;;;;;;17.67;10.07;;;;;;;;;;4991250;28;20066;-61
2022/06/16 00:48:08;;;;;;;15.85;10.10;;;;;;;;;;4990354;28;20035;-62
2022/06/16 00:50:34;;;;;;;15.80;9.98;;;;;;;;;;4991297;28;20026;-62
2022/06/16 00:53:00;;;;;;;18.05;10.02;;;;;;;;;;4991261;28;20065;-62
2022/06/16 00:55:26;;;;;;;16.77;9.55;;;;;;;;;;4991198;28;20034;-62
2022/06/16 00:57:53;;;;;;;16.48;9.23;;;;;;;;;;4972861;28;20051;-62
2022/06/16 01:00:26;;;;;;;16.45;9.30;;;;;;;;;;4991236;28;20471;-61
2022/06/16 01:02:52;;;;;;;15.18;9.25;;;;;;;;;;4991273;28;20049;-62
2022/06/16 01:05:18;;;;;;;16.42;9.20;;;;;;;;;;4991380;28;20146;-62
2022/06/16 01:07:46;;;;;;;16.23;9.65;;;;;;;;;;4990099;28;20065;-62
2022/06/16 01:10:14;;;;;;;15.93;9.13;;;;;;;;;;4990896;28;20448;-62
2022/06/16 01:15:34;;;;;;;15.10;9.40;;;;;;;;;;4991037;28;20085;-62
2022/06/16 01:18:00;;;;;;;16.60;9.27;;;;;;;;;;4990050;28;20054;-62
2022/06/16 01:20:26;;;;;;;15.27;8.80;;;;;;;;;;4988992;28;20078;-61
2022/06/16 01:23:09;;;;;;;18.67;9.63;;;;;;;;;;4990760;28;20029;-63
2022/06/16 01:25:44;;;;;;;15.90;9.75;;;;;;;;;;4974167;28;20022;-62
2022/06/16 01:28:13;;;;;;;15.77;9.35;;;;;;;;;;4993666;28;20044;-62
2022/06/16 01:30:53;;;;;;;16.90;9.85;;;;;;;;;;4977249;28;20033;-63
2022/06/16 01:33:25;;;;;;;16.20;9.15;;;;;;;;;;4994216;28;20403;-62
2022/06/16 01:36:09;;;;;;;17.45;9.07;;;;;;;;;;4994149;28;20072;-62
2022/06/16 01:38:48;;;;;;;15.93;9.30;;;;;;;;;;4993474;28;20026;-62
2022/06/16 01:41:14;;;;;;;15.82;9.38;;;;;;;;;;4976580;28;20113;-63
2022/06/16 01:43:44;;;;;;;18.20;9.55;;;;;;;;;;4994056;28;20130;-62
2022/06/16 01:46:31;;;;;;;16.63;9.63;;;;;;;;;;4976239;28;20026;-62
2022/06/16 01:49:05;;;;;;;16.57;9.37;;;;;;;;;;4993254;28;20061;-62
2022/06/16 01:51:33;;;;;;;17.50;9.57;;;;;;;;;;4993945;28;20654;-62
2022/06/16 01:54:03;;;;;;;17.50;9.50;;;;;;;;;;4993993;28;20022;-62
2022/06/16 01:56:43;;;;;;;15.13;9.23;;;;;;;;;;4993882;28;20062;-62
2022/06/16 01:59:12;;;;;;;16.58;9.50;;;;;;;;;;4993446;28;20069;-61
2022/06/16 02:01:40;;;;;;;17.77;10.13;;;;;;;;;;4976366;28;20045;-62
2022/06/16 02:04:28;;;;;;;16.05;9.80;;;;;;;;;;4993768;28;20027;-63
2022/06/16 02:06:55;;;;;;;15.52;9.60;;;;;;;;;;4993907;28;20027;-62
2022/06/16 02:09:27;;;;;;;16.50;9.07;;;;;;;;;;4992671;28;20033;-62
2022/06/16 02:11:56;;;;;;;16.77;9.13;;;;;;;;;;4993886;28;20018;-62
2022/06/16 02:14:25;;;;;;;16.55;9.38;;;;;;;;;;4975970;28;20121;-62
2022/06/16 02:16:51;;;;;;;16.65;9.68;;;;;;;;;;4976006;28;20057;-62
2022/06/16 02:19:19;;;;;;;16.55;9.60;;;;;;;;;;4992570;28;20082;-63
2022/06/16 02:21:46;;;;;;;15.38;9.23;;;;;;;;;;4975816;28;20026;-62
2022/06/16 02:24:14;;;;;;;16.77;9.43;;;;;;;;;;4993418;28;20023;-62
2022/06/16 02:26:40;;;;;;;15.80;9.52;;;;;;;;;;4975758;28;20026;-62
2022/06/16 02:29:26;;;;;;;16.25;9.82;;;;;;;;;;4992559;28;20026;-62
2022/06/16 02:31:58;;;;;;;18.27;10.00;;;;;;;;;;4993028;28;20026;-63
2022/06/16 02:34:36;;;;;;;17.23;9.60;;;;;;;;;;4993096;28;20069;-62
2022/06/16 02:37:20;;;;;;;17.42;9.40;;;;;;;;;;4993012;28;20026;-62
2022/06/16 02:39:49;;;;;;;19.17;10.32;;;;;;;;;;4975467;28;20092;-62
2022/06/16 02:42:34;;;;;;;18.13;9.30;;;;;;;;;;4992974;28;20212;-63
2022/06/16 02:45:10;;;;;;;18.05;9.70;;;;;;;;;;4975289;28;20490;-62
2022/06/16 02:47:57;;;;;;;15.77;9.95;;;;;;;;;;4992221;28;20038;-61
2022/06/16 02:50:46;;;;;;;19.55;9.38;;;;;;;;;;4992891;28;20031;-62
2022/06/16 02:53:12;;;;;;;;;;;;;;;;;;4993227;28;20070;-62
2022/06/16 02:55:40;;;;;;;15.90;8.68;;;;;;;;;;4992618;28;20000;-62
2022/06/16 02:58:06;;;;;;;;;;;;;;;;;;4974997;28;20156;-63
2022/06/16 03:00:38;;;;;;;15.73;9.20;;;;;;;;;;4975450;28;19910;-62
2022/06/16 03:03:23;;;;;;;18.98;10.15;;;;;;;;;;4992526;28;20042;-62
2022/06/16 03:05:53;;;;;;;18.08;9.10;;;;;;;;;;4992439;28;20018;-62
2022/06/16 03:08:20;;;;;;;19.77;9.40;;;;;;;;;;4974431;28;20026;-62
2022/06/16 03:10:52;;;;;;;17.60;8.73;;;;;;;;;;4992650;28;20078;-62
2022/06/16 03:13:22;;;;;;;16.67;9.18;;;;;;;;;;4992472;28;20050;-62
2022/06/16 03:15:49;;;;;;;20.48;10.40;;;;;;;;;;4992233;28;20026;-61
2022/06/16 03:18:15;;;;;;;16.77;9.63;;;;;;;;;;4974091;28;20557;-62
2022/06/16 03:20:41;;;;;;;17.83;9.43;;;;;;;;;;4974973;28;20030;-63
2022/06/16 03:23:07;;;;;;;16.60;9.50;;;;;;;;;;4992344;28;20019;-60
2022/06/16 03:25:34;;;;;;;17.60;10.57;;;;;;;;;;4992233;28;20027;-61
2022/06/16 03:28:00;;;;;;;16.00;9.23;;;;;;;;;;4974038;28;20566;-62
2022/06/16 03:30:26;;;;;;;16.45;9.60;;;;;;;;;;4992124;28;20062;-62
2022/06/16 03:32:52;;;;;;;15.35;8.93;;;;;;;;;;4991882;28;20030;-61
2022/06/16 03:35:18;;;;;;;16.58;9.75;;;;;;;;;;4992591;28;20018;-62
2022/06/16 03:37:44;;;;;;;17.38;9.35;;;;;;;;;;4991222;28;20026;-61
2022/06/16 03:40:13;;;;;;;16.40;9.95;;;;;;;;;;4991927;28;20510;-62
2022/06/16 03:42:40;;;;;;;19.02;9.43;;;;;;;;;;4974532;28;20110;-62
2022/06/16 03:45:07;;;;;;;15.05;8.88;;;;;;;;;;4991943;28;20027;-61
2022/06/16 03:47:33;;;;;;;15.98;8.95;;;;;;;;;;4991511;28;20026;-61
2022/06/16 03:49:59;;;;;;;16.23;8.98;;;;;;;;;;4974077;28;20030;-60
2022/06/16 03:52:25;;;;;;;18.55;9.35;;;;;;;;;;4992122;28;20244;-61
2022/06/16 03:54:51;;;;;;;16.70;8.88;;;;;;;;;;4991941;28;20097;-62
2022/06/16 03:57:17;;;;;;;16.88;8.88;;;;;;;;;;4992248;28;20487;-61
2022/06/16 03:59:43;;;;;;;17.15;10.05;;;;;;;;;;4992215;28;20064;-62
2022/06/16 04:02:09;;;;;;;16.73;8.95;;;;;;;;;;4992466;28;20041;-61
2022/06/16 04:04:36;;;;;;;17.67;9.88;;;;;;;;;;4992194;28;20031;-62
2022/06/16 04:07:02;;;;;;;17.58;9.23;;;;;;;;;;4991909;28;20042;-61
2022/06/16 04:09:28;;;;;;;17.50;9.60;;;;;;;;;;4973925;28;20027;-62
2022/06/16 04:11:54;;;;;;;17.80;9.38;;;;;;;;;;4991865;28;20027;-61
2022/06/16 04:14:20;;;;;;;22.48;9.80;;;;;;;;;;4992331;28;20395;-62
2022/06/16 04:16:48;;;;;;;17.10;9.48;;;;;;;;;;4992074;28;20509;-62
2022/06/16 04:19:21;;;;;;;16.33;9.48;;;;;;;;;;4991027;28;20049;-62
2022/06/16 04:21:48;;;;;;;16.20;8.85;;;;;;;;;;4991744;28;20025;-62
2022/06/16 04:24:15;;;;;;;18.33;9.43;;;;;;;;;;4991556;28;20049;-62
2022/06/16 04:26:41;;;;;;;17.20;8.90;;;;;;;;;;4991401;28;20061;-62
2022/06/16 04:29:08;;;;;;;15.75;8.77;;;;;;;;;;4973273;28;20035;-62
2022/06/16 04:31:35;;;;;;;16.42;8.25;;;;;;;;;;4991012;28;20458;-62
2022/06/16 04:34:01;;;;;;;17.25;9.23;;;;;;;;;;4991382;28;20418;-62
2022/06/16 04:36:27;;;;;;;16.38;8.85;;;;;;;;;;4991478;28;20062;-61
2022/06/16 04:38:54;;;;;;;15.35;9.02;;;;;;;;;;4990434;28;20109;-62
2022/06/16 04:41:20;;;;;;;18.75;8.52;;;;;;;;;;4991016;28;20444;-61
2022/06/16 04:43:47;;;;;;;16.48;9.60;;;;;;;;;;4991499;28;20049;-61
2022/06/16 04:46:14;;;;;;;18.73;9.93;;;;;;;;;;4991370;28;20037;-61
2022/06/16 04:48:40;;;;;;;17.25;9.95;;;;;;;;;;4990614;28;20030;-62
2022/06/16 04:51:06;;;;;;;19.13;9.55;;;;;;;;;;4991191;28;20549;-62
2022/06/16 04:53:32;;;;;;;16.52;9.50;;;;;;;;;;4991195;28;20034;-61
2022/06/16 04:56:00;;;;;;;21.67;9.80;;;;;;;;;;4973900;28;20390;-61
2022/06/16 04:58:27;;;;;;;16.52;9.82;;;;;;;;;;4990762;28;20030;-60
2022/06/16 05:00:54;;;;;;;18.17;9.55;;;;;;;;;;4992534;28;20064;-61
2022/06/16 05:03:20;;;;;;;20.40;9.65;;;;;;;;;;4977723;28;20051;-61
2022/06/16 05:05:46;;;;;;;16.98;9.73;;;;;;;;;;4995307;28;20030;-62
2022/06/16 05:08:13;;;;;;;15.63;9.35;;;;;;;;;;4994185;28;20026;-60
2022/06/16 05:10:39;;;;;;;16.17;9.02;;;;;;;;;;4977529;28;20053;-62
2022/06/16 05:13:05;;;;;;;17.75;9.70;;;;;;;;;;4977293;28;20129;-60
2022/06/16 05:15:32;;;;;;;17.63;10.23;;;;;;;;;;4977151;28;20154;-62
2022/06/16 05:17:58;;;;;;;17.42;9.48;;;;;;;;;;4976344;28;20026;-62
2022/06/16 05:20:24;;;;;;;18.73;9.88;;;;;;;;;;4994577;28;20177;-61
2022/06/16 05:22:50;;;;;;;17.52;9.50;;;;;;;;;;4976682;28;20022;-61
2022/06/16 05:25:16;;;;;;;20.30;10.60;;;;;;;;;;4994402;28;20023;-62
2022/06/16 05:27:42;;;;;;;16.83;9.95;;;;;;;;;;4976330;28;20085;-62
2022/06/16 05:30:08;;;;;;;16.33;9.52;;;;;;;;;;4994670;28;20028;-62
2022/06/16 05:32:34;;;;;;;17.63;10.25;;;;;;;;;;4994314;28;20064;-61
2022/06/16 05:35:00;;;;;;;18.15;9.85;;;;;;;;;;4976978;28;20030;-62
2022/06/16 05:37:26;;;;;;;16.85;9.70;;;;;;;;;;4976017;28;20030;-62
2022/06/16 05:39:52;;;;;;;19.58;11.02;;;;;;;;;;4994251;28;20387;-62
2022/06/16 05:42:19;;;;;;;17.88;9.90;;;;;;;;;;4994190;28;20025;-62
2022/06/16 05:44:45;;;;;;;20.88;10.50;;;;;;;;;;4994192;28;20033;-62
2022/06/16 05:47:12;;;;;;;20.65;11.50;;;;;;;;;;4993596;28;20019;-60
2022/06/16 05:49:42;;;;;;;17.05;10.50;;;;;;;;;;4993865;28;20037;-61
2022/06/16 05:52:12;;;;;;;19.23;10.82;;;;;;;;;;4994186;28;20018;-62
2022/06/16 05:54:38;;;;;;;18.15;10.70;;;;;;;;;;4994281;28;20022;-62
2022/06/16 05:57:05;;;;;;;18.63;10.07;;;;;;;;;;4993861;28;20026;-61
2022/06/16 05:59:31;;;;;;;17.90;10.00;;;;;;;;;;4993173;28;20545;-61
2022/06/16 06:01:57;;;;;;;19.60;10.75;;;;;;;;;;4976366;28;20026;-61
2022/06/16 06:04:23;;;;;;;18.23;10.50;;;;;;;;;;4994074;28;20081;-61
2022/06/16 06:06:49;;;;;;;16.13;9.27;;;;;;;;;;4993822;28;20681;-61
2022/06/16 06:17:29;;;;;;;21.67;10.20;;;;;;;;;;4993077;28;20045;-61
2022/06/16 06:19:55;;;;;;;16.23;10.00;;;;;;;;;;4993636;28;20096;-62
2022/06/16 06:22:26;;;;;;;17.58;9.85;;;;;;;;;;4993594;28;20019;-61
2022/06/16 06:25:00;;;;;;;18.08;10.52;;;;;;;;;;4976321;28;20167;-61
2022/06/16 06:27:35;;;;;;;19.67;10.55;;;;;;;;;;4993017;28;20414;-62
2022/06/16 06:30:01;;;;;;;19.60;10.20;;;;;;;;;;4976129;28;20129;-62
2022/06/16 06:32:28;;;;;;;20.75;10.80;;;;;;;;;;5011988;23;20029;-59
2022/06/16 06:34:54;;;;;;;18.27;10.27;;;;;;;;;;5033752;28;20088;-61
2022/06/16 06:37:24;;;;;;;17.85;10.00;;;;;;;;;;5033026;28;20553;-60
2022/06/16 06:39:50;;;;;;;22.70;14.30;;;;;;;;;;5032215;28;20137;-60
2022/06/16 06:42:17;;;;;;;20.02;10.20;;;;;;;;;;5033693;28;20162;-59
2022/06/16 06:44:43;;;;;;;18.23;10.90;;;;;;;;;;5033625;28;20084;-59
2022/06/16 06:47:11;;;;;;;19.70;9.98;;;;;;;;;;5033538;28;20021;-56
2022/06/16 06:49:37;;;;;;;;;;;;;;;;;;5032579;28;20033;-60
2022/06/16 06:52:03;;;;;;;17.27;11.20;;;;;;;;;;5032231;28;20012;-60
2022/06/16 06:54:29;;;;;;;18.38;10.10;;;;;;;;;;5032040;28;20061;-60
2022/06/16 06:56:55;;;;;;;18.35;10.30;;;;;;;;;;5032060;28;20660;-59
2022/06/16 06:59:21;;;;;;;17.45;10.20;;;;;;;;;;5032338;28;20029;-60
2022/06/16 07:01:51;;;;;;;16.63;9.60;;;;;;;;;;5032040;28;20098;-60
2022/06/16 07:04:18;;;;;;;17.20;10.07;;;;;;;;;;5033032;28;20500;-60
2022/06/16 07:06:45;;;;;;;16.55;9.95;;;;;;;;;;5033107;28;20026;-61
2022/06/16 07:09:12;;;;;;;18.02;10.40;;;;;;;;;;5031973;28;20034;-60
2022/06/16 07:11:40;;;;;;;16.65;10.02;;;;;;;;;;5031710;28;20056;-60
2022/06/16 07:14:06;;;;;;;17.50;9.98;;;;;;;;;;5031689;28;20035;-59
2022/06/16 07:16:32;;;;;;;17.40;9.98;;;;;;;;;;5032042;28;20128;-61
2022/06/16 07:18:58;;;;;;;16.70;9.43;;;;;;;;;;5030675;28;20029;-61
2022/06/16 07:21:24;;;;;;;16.55;9.82;;;;;;;;;;5031107;28;20072;-62
2022/06/16 07:23:51;;;;;;;16.63;9.98;;;;;;;;;;5031876;28;20047;-60
2022/06/16 07:26:17;;;;;;;17.23;9.68;;;;;;;;;;5032893;28;20028;-59
2022/06/16 07:28:43;;;;;;;15.38;9.80;;;;;;;;;;5032129;28;20504;-60
2022/06/16 07:31:09;;;;;;;16.25;10.10;;;;;;;;;;5031392;28;20055;-60
2022/06/16 07:33:35;;;;;;;16.60;9.23;;;;;;;;;;5032370;28;20404;-60
2022/06/16 07:36:01;;;;;;;18.45;9.65;;;;;;;;;;5032471;28;20022;-60
2022/06/16 07:38:27;;;;;;;15.45;9.77;;;;;;;;;;5031732;28;20033;-59
2022/06/16 07:41:31;;;;;;;15.18;9.70;;;;;;;;;;5032813;28;20441;-60
2022/06/16 07:43:40;;;;;;;17.25;9.73;;;;;;;;;;5032281;28;20491;-62
2022/06/16 07:46:06;;;;;;;15.75;9.50;;;;;;;;;;5032641;28;20040;-63
2022/06/16 07:48:32;;;;;;;14.93;9.32;;;;;;;;;;5031933;28;20026;-63
2022/06/16 07:50:58;;;;;;;15.80;9.57;;;;;;;;;;5032615;28;20029;-62
2022/06/16 07:53:24;;;;;;;14.85;8.90;;;;;;;;;;5031262;28;20027;-64
2022/06/16 07:55:50;;;;;;;15.70;9.25;;;;;;;;;;5031596;28;20481;-63
2022/06/16 07:58:16;;;;;;;15.43;9.40;;;;;;;;;;5032014;28;20055;-64
2022/06/16 08:00:42;;;;;;;15.23;9.57;;;;;;;;;;5032701;28;20437;-63
2022/06/16 08:03:08;;;;;;;15.05;9.50;;;;;;;;;;5032238;28;20013;-63
2022/06/16 08:05:34;;;;;;;14.57;9.40;;;;;;;;;;5032378;28;20064;-64
2022/06/16 08:08:00;;;;;;;14.75;9.02;;;;;;;;;;5031593;28;20076;-63
2022/06/16 08:10:27;;;;;;;15.32;8.80;;;;;;;;;;5030936;28;20025;-64
2022/06/16 08:12:53;;;;;;;15.10;8.70;;;;;;;;;;5031923;28;20053;-64
2022/06/16 08:15:19;;;;;;;14.90;8.75;;;;;;;;;;5030890;28;20385;-63
2022/06/16 08:17:47;;;;;;;14.35;8.80;;;;;;;;;;5031556;28;20065;-64
2022/06/16 08:20:14;;;;;;;14.50;8.53;;;;;;;;;;5030626;28;20032;-65
2022/06/16 08:22:40;;;;;;;17.15;8.68;;;;;;;;;;5032029;28;20041;-64
2022/06/16 08:25:07;;;;;;;16.85;9.15;;;;;;;;;;5031120;28;20029;-63
2022/06/16 08:27:34;;;;;;;15.05;8.30;;;;;;;;;;5028314;28;20033;-64
2022/06/16 08:30:01;;;;;;;15.37;9.03;;;;;;;;;;5024565;28;20052;-64
2022/06/16 08:32:28;;;;;;;14.18;9.00;;;;;;;;;;5014470;28;20120;-64
2022/06/16 08:34:54;;;;;;;14.55;8.70;;;;;;;;;;5013794;28;20049;-64
2022/06/16 08:37:21;;;;;;;15.38;8.75;;;;;;;;;;5015818;28;20030;-64
2022/06/16 08:39:47;;;;;;;15.18;8.90;;;;;;;;;;5021202;28;20436;-64
2022/06/16 08:42:13;;;;;;;14.80;9.02;;;;;;;;;;5025489;28;20045;-63
2022/06/16 08:44:39;;;;;;;14.68;8.77;;;;;;;;;;5024701;28;20017;-64
2022/06/16 08:47:26;;;;;;;14.05;8.68;;;;;;;;;;5024849;28;20113;-64
2022/06/16 08:49:58;;;;;;;15.45;8.50;;;;;;;;;;5024421;28;20113;-64
2022/06/16 08:52:31;;;;;;;16.27;8.80;;;;;;;;;;5024226;28;20169;-64
2022/06/16 08:55:09;;;;;;;14.57;8.88;;;;;;;;;;5027331;28;20370;-64
2022/06/16 08:57:42;;;;;;;15.15;8.80;;;;;;;;;;5024756;28;20029;-64
2022/06/16 09:00:11;;;;;;;14.77;8.73;;;;;;;;;;4676362;28;10000119;-62
2022/06/16 09:02:50;;;;;;;14.98;9.20;;;;;;;;;;5023738;28;20076;-65
2022/06/16 09:05:22;;;;;;;16.88;9.27;;;;;;;;;;5021938;28;20113;-64
2022/06/16 09:07:48;;;;;;;14.90;8.60;;;;;;;;;;5020844;28;20033;-65
2022/06/16 09:10:23;;;;;;;14.38;9.10;;;;;;;;;;5020351;28;20233;-64
2022/06/16 09:13:04;;;;;;;16.10;8.90;;;;;;;;;;5020784;28;20791;-65
2022/06/16 09:15:46;;;;;;;15.05;9.13;;;;;;;;;;5026143;28;20056;-65
2022/06/16 09:18:31;;;;;;;14.10;9.00;;;;;;;;;;5013282;28;20026;-64
2022/06/16 09:21:03;;;;;;;16.85;9.00;;;;;;;;;;5010893;28;20718;-64
2022/06/16 09:23:40;;;;;;;16.80;8.93;;;;;;;;;;5010523;28;20397;-64
2022/06/16 09:26:06;;;;;;;14.60;8.80;;;;;;;;;;5012813;28;20105;-65
2022/06/16 09:28:39;;;;;;;15.25;9.20;;;;;;;;;;5013409;28;20169;-64
2022/06/16 09:31:09;;;;;;;15.13;9.35;;;;;;;;;;5013781;28;20065;-64
2022/06/16 09:33:38;;;;;;;15.75;9.15;;;;;;;;;;5017905;28;20037;-64
2022/06/16 09:36:09;;;;;;;14.80;8.90;;;;;;;;;;5034613;28;20026;-63
2022/06/16 09:38:58;;;;;;;15.35;9.20;;;;;;;;;;5034052;28;20036;-64
2022/06/16 09:44:15;;;;;;;15.50;8.67;;;;;;;;;;5034269;28;20064;-64
2022/06/16 09:46:46;;;;;;;14.02;8.73;;;;;;;;;;5032315;28;20087;-64
2022/06/16 09:49:21;;;;;;;15.50;9.32;;;;;;;;;;5034016;28;20393;-65
2022/06/16 09:51:51;;;;;;;16.88;9.13;;;;;;;;;;5034635;28;20029;-65
2022/06/16 09:54:17;;;;;;;16.48;9.63;;;;;;;;;;5034906;28;20037;-64
2022/06/16 09:56:51;;;;;;;15.45;9.35;;;;;;;;;;5033106;28;20025;-64
2022/06/16 09:59:36;;;;;;;16.38;9.30;;;;;;;;;;5033558;28;20036;-64
2022/06/16 10:02:05;;;;;;;14.85;9.52;;;;;;;;;;5014546;28;20560;-64
2022/06/16 10:04:31;;;;;;;15.18;9.27;;;;;;;;;;5014603;28;20080;-64
2022/06/16 10:07:19;;;;;;;15.85;9.80;;;;;;;;;;5014312;28;20050;-62
2022/06/16 10:09:48;;;;;;;15.50;9.35;;;;;;;;;;5013198;28;20565;-64
2022/06/16 10:12:35;;;;;;;14.63;9.48;;;;;;;;;;5014219;28;20026;-63
2022/06/16 10:15:20;;;;;;;15.80;9.43;;;;;;;;;;4999761;28;20474;-62
2022/06/16 10:17:48;;;;;;;16.38;10.10;;;;;;;;;;5013625;28;20092;-65
2022/06/16 10:20:15;;;;;;;15.38;9.63;;;;;;;;;;5014263;28;20036;-63
2022/06/16 10:22:45;;;;;;;15.20;9.57;;;;;;;;;;5014095;28;20049;-64
2022/06/16 10:25:20;;;;;;;16.05;9.57;;;;;;;;;;5013974;28;20029;-65
2022/06/16 10:27:53;;;;;;;15.90;10.13;;;;;;;;;;5013496;28;20394;-65
2022/06/16 10:30:21;;;;;;;19.60;9.80;;;;;;;;;;5014214;28;20026;-64
2022/06/16 10:32:49;;;;;;;18.73;10.18;;;;;;;;;;5013829;28;20131;-64
2022/06/16 10:35:17;;;;;;;16.27;10.02;;;;;;;;;;5024974;28;20025;-63
2022/06/16 10:37:43;;;;;;;16.58;9.80;;;;;;;;;;5033000;28;20029;-64
2022/06/16 10:40:12;;;;;;;15.48;10.18;;;;;;;;;;5033609;28;20021;-64
2022/06/16 10:42:46;;;;;;;16.67;10.38;;;;;;;;;;5033706;28;20079;-63
2022/06/16 10:45:22;;;;;;;15.52;9.82;;;;;;;;;;5032538;28;20434;-65
2022/06/16 10:48:00;;;;;;;16.58;9.90;;;;;;;;;;5031296;28;20029;-65
2022/06/16 10:50:38;;;;;;;17.27;9.65;;;;;;;;;;5033549;28;20143;-65
2022/06/16 10:53:06;;;;;;;15.30;9.60;;;;;;;;;;5033495;28;20029;-64
2022/06/16 10:55:37;;;;;;;17.25;10.07;;;;;;;;;;5033459;28;20588;-64
2022/06/16 10:58:15;;;;;;;15.63;10.35;;;;;;;;;;5029993;28;20037;-64
2022/06/16 11:00:41;;;;;;;15.50;9.82;;;;;;;;;;5033150;28;20458;-64
2022/06/16 11:03:10;;;;;;;15.77;10.35;;;;;;;;;;5033248;28;20151;-64
2022/06/16 11:05:49;;;;;;;14.90;9.93;;;;;;;;;;5033374;28;20378;-64
2022/06/16 11:08:16;;;;;;;16.58;9.80;;;;;;;;;;5031201;28;20053;-64
2022/06/16 11:10:51;;;;;;;16.20;9.43;;;;;;;;;;5033175;28;20025;-64
2022/06/16 11:13:17;;;;;;;15.68;9.60;;;;;;;;;;5033190;28;20029;-65
2022/06/16 11:15:48;;;;;;;17.70;9.98;;;;;;;;;;5033103;28;20022;-64
2022/06/16 11:18:16;;;;;;;18.08;10.68;;;;;;;;;;5032146;28;20481;-64
2022/06/16 11:20:44;;;;;;;15.75;10.32;;;;;;;;;;5032861;28;20025;-65
2022/06/16 11:23:22;;;;;;;16.10;10.00;;;;;;;;;;5032020;28;20029;-64
2022/06/16 11:25:49;;;;;;;16.15;10.00;;;;;;;;;;4681112;28;9999685;-64
2022/06/16 11:28:20;;;;;;;19.20;10.73;;;;;;;;;;4679651;28;9999802;-65
2022/06/16 11:30:47;;;;;;;16.35;10.90;;;;;;;;;;5024941;28;20509;-65
2022/06/16 11:36:20;;;;;;;16.67;11.15;;;;;;;;;;5029747;28;20563;-64
2022/06/16 11:39:09;;;;;;;17.27;11.02;;;;;;;;;;5008957;28;20044;-64
2022/06/16 11:41:35;;;;;;;17.30;11.38;;;;;;;;;;5003493;28;20549;-62
2022/06/16 11:44:09;;;;;;;17.08;10.80;;;;;;;;;;5009321;28;20029;-64
2022/06/16 11:47:07;;;;;;;18.02;11.00;;;;;;;;;;5020579;28;20017;-63
2022/06/16 11:49:45;;;;;;;16.88;10.38;;;;;;;;;;4995516;28;20034;-64
2022/06/16 11:52:17;;;;;;;16.25;10.95;;;;;;;;;;5028798;28;20018;-65
2022/06/16 11:54:55;;;;;;;16.38;11.10;;;;;;;;;;5029213;28;20441;-64
2022/06/16 11:57:35;;;;;;;17.17;11.13;;;;;;;;;;5027206;28;20025;-64
2022/06/16 12:00:01;;;;;;;16.38;10.93;;;;;;;;;;5029291;28;20389;-63
2022/06/16 12:02:45;;;;;;;16.50;10.88;;;;;;;;;;5014894;28;20029;-64
2022/06/16 12:05:27;;;;;;;16.67;11.02;;;;;;;;;;5027492;28;20021;-65
2022/06/16 12:08:05;;;;;;;16.83;10.82;;;;;;;;;;5028004;28;20021;-64
2022/06/16 12:10:51;;;;;;;15.93;10.68;;;;;;;;;;5028625;28;20034;-64
2022/06/16 12:13:20;;;;;;;16.05;10.23;;;;;;;;;;5029138;28;20021;-65
2022/06/16 12:15:54;;;;;;;16.60;10.50;;;;;;;;;;5029546;28;20427;-63
2022/06/16 12:18:43;;;;;;;16.55;10.80;;;;;;;;;;5030150;28;20465;-62
2022/06/16 12:21:31;;;;;;;17.05;11.65;;;;;;;;;;5024472;28;20075;-64
2022/06/16 12:24:09;;;;;;;16.70;11.20;;;;;;;;;;5032167;28;20018;-62
2022/06/16 12:26:37;;;;;;;;;;;;;;;;;;5031163;28;20033;-64
2022/06/16 12:29:10;;;;;;;16.23;10.98;;;;;;;;;;5029774;28;19911;-65
2022/06/16 12:31:47;;;;;;;15.90;10.88;;;;;;;;;;4679986;28;10000018;-65
2022/06/16 12:34:25;;;;;;;15.57;11.23;;;;;;;;;;5038922;23;20052;-63
2022/06/16 12:36:53;;;;;;;17.13;11.40;;;;;;;;;;5027528;28;20109;-63
2022/06/16 12:39:36;;;;;;;16.48;10.70;;;;;;;;;;5027321;28;20029;-63
2022/06/16 12:42:08;;;;;;;17.35;11.40;;;;;;;;;;5027453;28;20078;-63
2022/06/16 12:44:38;;;;;;;15.82;10.68;;;;;;;;;;5009722;28;20112;-63
2022/06/16 12:47:07;;;;;;;17.80;11.20;;;;;;;;;;5027505;28;20079;-63
2022/06/16 12:49:42;;;;;;;15.52;11.05;;;;;;;;;;5026875;28;20029;-64
2022/06/16 12:52:35;;;;;;;16.35;10.80;;;;;;;;;;5027489;28;20197;-64
2022/06/16 12:55:07;;;;;;;15.20;10.60;;;;;;;;;;5016402;28;20109;-64
2022/06/16 12:57:38;;;;;;;17.27;10.50;;;;;;;;;;5035256;28;20029;-64
2022/06/16 13:00:10;;;;;;;16.35;11.05;;;;;;;;;;5029575;28;20030;-63
2022/06/16 13:02:37;;;;;;;17.38;10.75;;;;;;;;;;5021740;28;20110;-63
2022/06/16 13:05:09;;;;;;;16.52;10.60;;;;;;;;;;5013658;28;20080;-63
2022/06/16 13:07:35;;;;;;;15.98;11.20;;;;;;;;;;5010514;28;20054;-63
2022/06/16 13:10:01;;;;;;;17.80;11.80;;;;;;;;;;5011102;28;20038;-62
2022/06/16 13:12:32;;;;;;;15.30;10.65;;;;;;;;;;5010943;28;20363;-63
2022/06/16 13:15:01;;;;;;;19.00;12.93;;;;;;;;;;5009821;28;20125;-62
2022/06/16 13:17:29;;;;;;;21.58;12.30;;;;;;;;;;5010212;28;20053;-61
2022/06/16 13:19:58;;;;;;;16.67;10.82;;;;;;;;;;5009625;28;20030;-63
2022/06/16 13:22:35;;;;;;;15.57;10.98;;;;;;;;;;5012892;28;20398;-63
2022/06/16 13:25:06;;;;;;;16.10;11.10;;;;;;;;;;5015182;28;20037;-63
2022/06/16 13:27:40;;;;;;;17.15;12.55;;;;;;;;;;5013315;28;20492;-63
2022/06/16 13:30:09;;;;;;;16.52;11.40;;;;;;;;;;5022250;28;20033;-63
2022/06/16 13:32:41;;;;;;;15.90;10.63;;;;;;;;;;5035283;28;20171;-66
2022/06/16 13:35:27;;;;;;;15.60;10.55;;;;;;;;;;5034323;28;20057;-64
2022/06/16 13:37:59;;;;;;;15.10;10.70;;;;;;;;;;5034343;28;20030;-63
2022/06/16 13:40:26;;;;;;;17.20;10.90;;;;;;;;;;5033705;28;20065;-62
2022/06/16 13:42:55;;;;;;;17.45;11.13;;;;;;;;;;5033842;28;20021;-61
2022/06/16 13:45:21;;;;;;;16.92;11.27;;;;;;;;;;4682648;28;10000124;-61
2022/06/16 13:48:14;;;;;;;16.23;11.55;;;;;;;;;;5012013;28;20021;-61
2022/06/16 13:50:59;;;;;;;15.95;10.93;;;;;;;;;;5030824;28;20034;-60
2022/06/16 13:53:32;;;;;;;18.38;11.63;;;;;;;;;;5012605;28;20033;-62
2022/06/16 13:56:03;;;;;;;16.45;12.23;;;;;;;;;;5030273;28;20061;-62
2022/06/16 13:58:31;;;;;;;16.02;11.23;;;;;;;;;;5029392;28;20030;-59
2022/06/16 14:01:09;;;;;;;15.35;10.70;;;;;;;;;;5030696;28;20029;-62
2022/06/16 14:03:35;;;;;;;;;;;;;;;;;;5030638;28;20032;-62
2022/06/16 14:06:08;;;;;;;16.50;11.20;;;;;;;;;;5010913;28;19905;-62
2022/06/16 14:08:36;;;;;;;15.75;11.50;;;;;;;;;;5029945;28;20033;-58
2022/06/16 14:11:16;;;;;;;16.70;11.07;;;;;;;;;;5031183;28;20036;-60
2022/06/16 14:13:47;;;;;;;15.38;11.07;;;;;;;;;;5031244;28;20036;-59
2022/06/16 14:16:13;;;;;;;16.80;10.95;;;;;;;;;;5031436;28;20109;-61
2022/06/16 14:18:54;;;;;;;15.88;11.40;;;;;;;;;;5030743;28;20040;-62
2022/06/16 14:21:24;;;;;;;15.90;11.52;;;;;;;;;;5031491;28;20033;-61
2022/06/16 14:23:55;;;;;;;16.02;11.60;;;;;;;;;;5027088;28;20025;-61
2022/06/16 14:26:23;;;;;;;16.17;11.63;;;;;;;;;;5027716;28;20519;-62
2022/06/16 14:28:50;;;;;;;18.73;11.57;;;;;;;;;;5009076;28;20132;-61
2022/06/16 14:31:25;;;;;;;16.63;11.63;;;;;;;;;;5026485;28;20025;-60
2022/06/16 14:34:29;;;;;;;17.45;12.38;;;;;;;;;;5018845;28;20451;-61
2022/06/16 14:36:59;;;;;;;18.00;11.93;;;;;;;;;;4933498;29;20037;-61
2022/06/16 14:39:43;;;;;;;15.68;11.77;;;;;;;;;;4947865;28;20063;-60
2022/06/16 14:42:14;;;;;;;14.93;11.20;;;;;;;;;;4986753;28;20045;-61
2022/06/16 14:44:46;;;;;;;16.13;11.23;;;;;;;;;;5010474;28;20026;-61
2022/06/16 14:47:15;;;;;;;17.10;11.75;;;;;;;;;;5031321;28;20029;-60
2022/06/16 14:49:44;;;;;;;16.90;11.43;;;;;;;;;;5049736;28;20426;-63
2022/06/16 14:52:12;;;;;;;15.20;11.20;;;;;;;;;;5049852;28;20032;-62
2022/06/16 14:54:44;;;;;;;16.50;11.60;;;;;;;;;;5049962;28;20025;-62
2022/06/16 14:57:17;;;;;;;16.73;11.60;;;;;;;;;;5034067;28;20044;-61
2022/06/16 14:59:49;;;;;;;16.77;11.80;;;;;;;;;;5029930;28;20034;-61
2022/06/16 15:02:15;;;;;;;16.77;11.75;;;;;;;;;;5030031;28;20029;-57